createdAt,value
2023-02-19T06:32:23.359Z,48.00
2023-02-19T06:33:23.823Z,52.00
2023-02-19T06:34:25.474Z,44.00
2023-02-19T06:35:30.790Z,48.00
2023-02-19T06:36:25.728Z,56.00
2023-02-19T06:37:25.039Z,64.00
2023-02-19T06:38:26.074Z,64.00
2023-02-19T06:39:24.793Z,68.00
2023-02-19T06:40:24.642Z,68.00
2023-02-19T06:41:25.036Z,80.00
2023-02-19T06:42:27.178Z,100.00
2023-02-19T06:43:25.481Z,112.00
2023-02-19T06:44:26.730Z,136.00
2023-02-19T06:45:24.436Z,128.00
2023-02-19T06:46:29.819Z,124.00
2023-02-19T06:47:25.617Z,120.00
2023-02-19T06:48:25.760Z,104.00
2023-02-19T06:49:27.113Z,100.00
2023-02-19T06:50:27.038Z,96.00
2023-02-19T06:51:32.228Z,92.00
2023-02-19T06:52:25.265Z,76.00
2023-02-19T06:53:24.810Z,72.00
2023-02-19T06:54:25.873Z,76.00
2023-02-19T06:55:24.863Z,92.00
2023-02-19T06:56:24.144Z,100.00
2023-02-19T06:57:31.973Z,104.00
2023-02-19T06:58:27.596Z,112.00
2023-02-19T06:59:25.706Z,128.00
2023-02-19T07:00:24.252Z,144.00
2023-02-19T07:01:25.401Z,156.00
2023-02-19T07:02:24.305Z,172.00
2023-02-19T07:03:24.133Z,184.00
2023-02-19T07:04:24.109Z,192.00
2023-02-19T07:05:24.126Z,224.00
2023-02-19T07:06:25.287Z,256.00
2023-02-19T07:07:24.752Z,288.00
2023-02-19T07:08:24.035Z,332.00
2023-02-19T07:09:24.125Z,364.00
2023-02-19T07:10:24.126Z,396.00
2023-02-19T07:11:23.996Z,404.00
2023-02-19T07:12:25.822Z,424.00
2023-02-19T07:13:23.954Z,404.00
2023-02-19T07:14:35.465Z,356.00
2023-02-19T07:15:33.948Z,312.00
2023-02-19T07:16:35.187Z,320.00
2023-02-19T07:17:28.212Z,348.00
2023-02-19T07:20:33.863Z,440.00
2023-02-19T07:21:34.065Z,500.00
2023-02-19T07:22:33.859Z,528.00
2023-02-19T07:23:33.992Z,580.00
2023-02-19T07:24:45.175Z,816.00
2023-02-19T07:25:34.923Z,1100.00
2023-02-19T07:26:36.265Z,1092.00
2023-02-19T07:27:34.423Z,912.00
2023-02-19T07:28:48.142Z,708.00
2023-02-19T07:29:42.777Z,608.00
2023-02-19T07:31:04.489Z,596.00
2023-02-19T07:31:48.925Z,600.00
2023-02-19T07:33:34.439Z,648.00
2023-02-19T07:34:11.859Z,676.00
2023-02-19T07:34:50.956Z,708.00
2023-02-19T07:35:41.980Z,740.00
2023-02-19T07:36:41.026Z,632.00
2023-02-19T07:37:41.916Z,492.00
2023-02-19T07:38:41.064Z,412.00
2023-02-19T07:39:41.045Z,376.00
2023-02-19T07:40:41.996Z,384.00
2023-02-19T07:41:41.875Z,416.00
2023-02-19T07:42:41.360Z,448.00
2023-02-19T07:43:41.574Z,500.00
2023-02-19T07:44:41.113Z,580.00
2023-02-19T07:45:41.101Z,644.00
2023-02-19T07:46:41.655Z,600.00
2023-02-19T07:47:42.029Z,568.00
2023-02-19T07:48:41.741Z,652.00
2023-02-19T07:49:40.905Z,804.00
2023-02-19T07:50:42.833Z,932.00
2023-02-19T07:51:40.840Z,820.00
2023-02-19T07:52:40.836Z,672.00
2023-02-19T07:53:40.824Z,592.00
2023-02-19T07:54:41.437Z,608.00
2023-02-19T07:55:40.904Z,540.00
2023-02-19T07:56:40.817Z,444.00
2023-02-19T07:57:40.720Z,344.00
2023-02-19T07:58:41.554Z,304.00
2023-02-19T07:59:40.781Z,292.00
2023-02-19T08:00:40.840Z,304.00
2023-02-19T08:01:40.707Z,348.00
2023-02-19T08:02:41.300Z,400.00
2023-02-19T08:03:40.742Z,416.00
2023-02-19T08:04:40.801Z,488.00
2023-02-19T08:05:40.707Z,532.00
2023-02-19T08:06:40.697Z,636.00
2023-02-19T08:07:40.642Z,716.00
2023-02-19T08:08:40.621Z,824.00
2023-02-19T08:09:40.900Z,964.00
2023-02-19T08:10:40.798Z,1144.00
2023-02-19T08:11:41.220Z,1272.00
2023-02-19T08:12:40.624Z,1292.00
2023-02-19T08:13:40.932Z,1192.00
2023-02-19T08:14:40.702Z,1144.00
2023-02-19T08:15:42.582Z,1164.00
2023-02-19T08:16:43.214Z,1104.00
2023-02-19T08:17:40.586Z,1088.00
2023-02-19T08:18:47.848Z,1136.00
2023-02-19T08:19:40.606Z,1124.00
2023-02-19T08:20:41.113Z,1120.00
2023-02-19T08:21:44.631Z,1020.00
2023-02-19T08:23:01.979Z,976.00
2023-02-19T08:23:45.876Z,1016.00
2023-02-19T08:28:55.568Z,928.00
2023-02-19T08:29:57.686Z,1004.00
2023-02-19T08:31:34.645Z,972.00
2023-02-19T08:31:58.913Z,924.00
2023-02-19T08:33:05.158Z,972.00
2023-02-19T08:34:23.678Z,1084.00
2023-02-19T08:37:08.597Z,932.00
2023-02-19T08:38:08.597Z,1060.00
2023-02-19T08:39:08.553Z,1032.00
2023-02-19T08:40:08.626Z,948.00
2023-02-19T08:41:08.753Z,1188.00
2023-02-19T08:42:43.556Z,1544.00
2023-02-19T08:43:10.157Z,1732.00
2023-02-19T08:44:09.867Z,1648.00
2023-02-19T08:45:09.640Z,1504.00
2023-02-19T08:46:09.868Z,1368.00
2023-02-19T08:47:09.628Z,1048.00
2023-02-19T08:48:09.674Z,768.00
2023-02-19T08:49:09.600Z,772.00
2023-02-19T08:50:09.642Z,988.00
2023-02-19T08:51:09.821Z,1204.00
2023-02-19T08:52:09.633Z,1388.00
2023-02-19T08:53:09.613Z,1496.00
2023-02-19T08:56:24.071Z,1280.00
2023-02-19T08:57:24.402Z,1124.00
2023-02-19T08:58:24.053Z,1092.00
2023-02-19T08:59:25.163Z,1056.00
2023-02-19T09:00:25.090Z,900.00
2023-02-19T09:01:25.315Z,820.00
2023-02-19T09:02:25.170Z,760.00
2023-02-19T09:03:25.090Z,808.00
2023-02-19T09:04:25.179Z,816.00
2023-02-19T09:05:25.144Z,788.00
2023-02-19T09:06:25.027Z,824.00
2023-02-19T09:07:25.125Z,920.00
2023-02-19T09:08:25.112Z,1068.00
2023-02-19T09:09:25.236Z,1168.00
2023-02-19T09:10:25.242Z,1252.00
2023-02-19T09:11:25.622Z,1396.00
2023-02-19T09:12:25.065Z,1492.00
2023-02-19T09:13:24.985Z,1460.00
2023-02-19T09:14:24.988Z,1440.00
2023-02-19T09:15:58.983Z,1416.00
2023-02-19T09:17:01.270Z,1228.00
2023-02-19T09:17:25.551Z,1104.00
2023-02-19T09:18:24.952Z,1044.00
2023-02-19T09:19:57.469Z,1068.00
2023-02-19T09:20:25.737Z,1140.00
2023-02-19T09:21:25.326Z,1220.00
2023-02-19T09:22:57.349Z,1348.00
